Pagrindinis puslapis
METAR-TAF:

METAR-TAF

Oro uostai :

Šiaulių oro uostas

Šiauliai, Lietuva

platuma: 55-53-38N, ilguma: 023-23-42E, Aukštis: 135 m

Dabartinis oras

Ataskaita buvo paskelbta 34 minutes, ne 08:50 UTC
Vėjas 5 kt iš Pietų/Pietvakarių
Temperatūra 13°C
Drėgmė 88%
Slėgis 1015 hPa
Matomumas 10 km arba daugiau
Mažai debesys ne aukštis 400 ft
Su prošvaistėmis ne aukštis 2800 ft

METAR: EYSA 180850Z 20005KT 9999 FEW004 BKN028 13/11 Q1015 BLU NOSIG

Laikas: 12:24 (09:24 UTC)

Prognozė

Ataskaita buvo paskelbta 1 valandą ir 24 minutes, ne 08:00 UTC
Prognozė galioja nuo 18 metu 09 UTC su 18 metu 18 UTC
Vėjas 6 kt iš Pietų
Matomumas: 7000 m
Išsisklaidę debesys ne aukštis 500 ft
Su prošvaistėmis ne aukštis 3000 ft
Laikinai
nuo 18 metu 09 UTC su 18 metu 12 UTC
Su prošvaistėmis ne aukštis 500 ft
Tapsmas
nuo 18 metu 12 UTC su 18 metu 13 UTC

TAF: EYSA 180800Z 1809/1818 19006KT 7000 SCT005 BKN030 TEMPO 1809/1812 BKN005 BECMG 1812/1813 NSC

Orai ataskaitas ir orų prognozės (METAR, TAF).

turimą stotys yra geltonos ir raudonos taškus žemėlapyje.

Perkelti pele per norėdami pamatyti stoties vardą.

Tada spustelėkite, norėdami matyti oro stebėjimo ir prognozės.

Norėdami pakeisti žemėlapį: spustelėkite ant žalios mygtukų su juodo kryžiaus žemyn,; žalią mygtuką su brūkšneliu, jei norite nutolinti; arba žalių rodyklių gretimoms žemėlapius.


METAR-TAF: